MSC Clorinda — 3FDW7 — position and weather

sailwx.info

Track history (hours):
 
Tides and Currents Weather Stations Pressure Air Temp Water Temp Dewpoint Dewpoint Depression Visibility Wind Speed Wind Dir Waves Ship Positions

MSC Clorinda

Last reported at 2017-Feb-26 10:05 UTC. Time now 2017-Feb-27 06:50 UTC.
Position N 38°55' E 121°56'.

Length 366 m; draft 11.9 m.

Type: Ship (hazmat cat A). MMSI: 373233000.

Date/timePositionNaut miles runAvg speedWind from/ knotsBaromVisibWave heightAir tempDewpointWater temp
2017-Feb-26 10:05N 38°55' E 121°56'3 6.4
2017-Feb-26 09:33N 38°52' E 121°57'8 8.1
2017-Feb-26 08:33N 38°48' E 122°06'9 9.1
2017-Feb-26 07:33N 38°42' E 122°14'9 9.4
2017-Feb-26 06:33N 38°35' E 122°23'10 9.8
2017-Feb-26 05:33N 38°29' E 122°32'10 9.6
2017-Feb-26 04:31N 38°22' E 122°42'12 9.5
2017-Feb-26 03:12N 38°14' E 122°53'  
2017-Feb-17 05:05N 01°15' E 104°07'916.5
2017-Feb-17 04:33N 01°14' E 103°58'1110.8
2017-Feb-17 03:33N 01°13' E 103°47'3 3.2
2017-Feb-17 02:31N 01°16' E 103°46'0 0.0
2017-Feb-17 01:31N 01°16' E 103°46'0 0.0
2017-Feb-17 00:31N 01°16' E 103°46'0 0.0
2017-Feb-16 23:31N 01°16' E 103°46'0 0.0
2017-Feb-16 22:31N 01°16' E 103°46'0 0.0
2017-Feb-16 21:34N 01°16' E 103°46'0 0.0
2017-Feb-16 20:30N 01°16' E 103°46'0 0.0
2017-Feb-16 19:34N 01°16' E 103°46'0 0.0
2017-Feb-16 18:30N 01°16' E 103°46'0 0.0
2017-Feb-16 17:27N 01°16' E 103°46'0 0.0
2017-Feb-16 16:30N 01°16' E 103°46'0 0.0
2017-Feb-16 15:30N 01°16' E 103°46'0 0.0
2017-Feb-16 14:27N 01°16' E 103°46'0 0.0
2017-Feb-16 13:34N 01°16' E 103°46'0 0.0
2017-Feb-16 12:33N 01°16' E 103°46'0 0.0
2017-Feb-16 11:34N 01°16' E 103°46'0 0.0
2017-Feb-16 10:33N 01°16' E 103°46'  
Track history (hours):
 
Tides and Currents Weather Stations Pressure Air Temp Water Temp Dewpoint Dewpoint Depression Visibility Wind Speed Wind Dir Waves Ship Positions

MSC Clorinda

Last reported at 2017-Feb-26 10:05 UTC. Time now 2017-Feb-27 06:50 UTC.
Position N 38°55' E 121°56'.

Length 366 m; draft 11.9 m.

Type: Ship (hazmat cat A). MMSI: 373233000.

Date/timePositionNaut miles runAvg speedWind from/ knotsBaromVisibWave heightAir tempDewpointWater temp
2017-Feb-26 10:05N 38°55' E 121°56'3 6.4
2017-Feb-26 09:33N 38°52' E 121°57'8 8.1
2017-Feb-26 08:33N 38°48' E 122°06'9 9.1
2017-Feb-26 07:33N 38°42' E 122°14'9 9.4
2017-Feb-26 06:33N 38°35' E 122°23'10 9.8
2017-Feb-26 05:33N 38°29' E 122°32'10 9.6
2017-Feb-26 04:31N 38°22' E 122°42'12 9.5
2017-Feb-26 03:12N 38°14' E 122°53'  
2017-Feb-17 05:05N 01°15' E 104°07'916.5
2017-Feb-17 04:33N 01°14' E 103°58'1110.8
2017-Feb-17 03:33N 01°13' E 103°47'3 3.2
2017-Feb-17 02:31N 01°16' E 103°46'0 0.0
2017-Feb-17 01:31N 01°16' E 103°46'0 0.0
2017-Feb-17 00:31N 01°16' E 103°46'0 0.0
2017-Feb-16 23:31N 01°16' E 103°46'0 0.0
2017-Feb-16 22:31N 01°16' E 103°46'0 0.0
2017-Feb-16 21:34N 01°16' E 103°46'0 0.0
2017-Feb-16 20:30N 01°16' E 103°46'0 0.0
2017-Feb-16 19:34N 01°16' E 103°46'0 0.0
2017-Feb-16 18:30N 01°16' E 103°46'0 0.0
2017-Feb-16 17:27N 01°16' E 103°46'0 0.0
2017-Feb-16 16:30N 01°16' E 103°46'0 0.0
2017-Feb-16 15:30N 01°16' E 103°46'0 0.0
2017-Feb-16 14:27N 01°16' E 103°46'0 0.0
2017-Feb-16 13:34N 01°16' E 103°46'0 0.0
2017-Feb-16 12:33N 01°16' E 103°46'0 0.0
2017-Feb-16 11:34N 01°16' E 103°46'0 0.0
2017-Feb-16 10:33N 01°16' E 103°46'  

Dump ship's entire track history